createdAt,value
2022-12-20T00:01:53.229Z,34.80
2022-12-20T00:04:21.052Z,33.47
2022-12-20T00:06:48.799Z,30.57
2022-12-20T00:09:17.886Z,32.80
2022-12-20T00:11:45.620Z,31.77
2022-12-20T00:14:13.354Z,30.23
2022-12-20T00:16:41.078Z,31.60
2022-12-20T00:19:08.891Z,33.77
2022-12-20T00:21:36.889Z,31.03
2022-12-20T00:24:05.389Z,35.47
2022-12-20T00:26:35.891Z,34.30
2022-12-20T00:29:04.765Z,33.10
2022-12-20T00:31:33.114Z,38.47
2022-12-20T00:34:01.970Z,34.97
2022-12-20T00:36:32.131Z,34.60
2022-12-20T00:39:01.366Z,35.73
2022-12-20T00:41:31.036Z,31.07
2022-12-20T00:44:00.462Z,33.93
2022-12-20T00:46:29.281Z,30.27
2022-12-20T00:48:57.767Z,30.77
2022-12-20T00:51:27.658Z,29.87
2022-12-20T00:53:56.257Z,30.87
2022-12-20T00:56:26.055Z,34.43
2022-12-20T00:58:54.499Z,33.90
2022-12-20T01:01:25.757Z,31.87
2022-12-20T01:03:55.428Z,31.47
2022-12-20T01:06:25.093Z,33.90
2022-12-20T01:08:53.086Z,27.37
2022-12-20T01:11:23.525Z,28.43
2022-12-20T01:13:53.481Z,31.93
2022-12-20T01:16:24.829Z,29.70
2022-12-20T01:18:53.692Z,31.03
2022-12-20T01:21:23.769Z,29.03
2022-12-20T01:23:51.893Z,27.80
2022-12-20T01:26:22.447Z,26.90
2022-12-20T01:28:52.995Z,27.80
2022-12-20T01:31:22.188Z,30.20
2022-12-20T01:33:52.847Z,27.67
2022-12-20T01:36:25.035Z,26.17
2022-12-20T01:38:56.348Z,29.13
2022-12-20T01:41:24.654Z,31.37
2022-12-20T01:43:55.782Z,30.57
2022-12-20T01:46:25.354Z,27.93
2022-12-20T01:49:00.896Z,28.00
2022-12-20T01:51:30.631Z,30.97
2022-12-20T01:54:02.935Z,27.87
2022-12-20T01:56:30.747Z,29.60
2022-12-20T01:58:59.277Z,30.13
2022-12-20T02:01:27.092Z,24.67
2022-12-20T02:03:57.203Z,29.93
2022-12-20T02:06:27.891Z,27.90
2022-12-20T02:09:00.226Z,27.20
2022-12-20T02:11:50.987Z,28.93
2022-12-20T02:14:33.180Z,27.83
2022-12-20T02:17:12.700Z,28.57
2022-12-20T02:20:12.216Z,29.20
2022-12-20T02:22:55.109Z,27.57
2022-12-20T02:25:44.757Z,25.43
2022-12-20T02:28:27.604Z,26.67
2022-12-20T02:30:59.266Z,30.17
2022-12-20T02:33:29.412Z,29.03
2022-12-20T02:35:57.148Z,27.70
2022-12-20T02:38:29.466Z,24.50
2022-12-20T02:41:02.500Z,28.07
2022-12-20T02:43:58.865Z,27.10
2022-12-20T02:46:28.914Z,27.90
2022-12-20T02:49:00.579Z,27.80
2022-12-20T02:51:31.103Z,27.30
2022-12-20T02:53:59.816Z,30.63
2022-12-20T02:56:33.646Z,30.20
2022-12-20T02:59:06.255Z,24.30
2022-12-20T03:01:39.031Z,24.20
2022-12-20T03:04:09.202Z,25.63
2022-12-20T03:06:36.938Z,27.70
2022-12-20T03:09:04.934Z,26.10
2022-12-20T03:11:32.644Z,23.33
2022-12-20T03:14:00.378Z,21.43
2022-12-20T03:16:28.146Z,27.23
2022-12-20T03:18:57.256Z,26.37
2022-12-20T03:21:24.967Z,25.93
2022-12-20T03:23:52.673Z,24.33
2022-12-20T03:26:20.389Z,26.63
2022-12-20T03:28:48.146Z,26.90
2022-12-20T03:31:16.075Z,23.60
2022-12-20T03:33:43.805Z,25.33
2022-12-20T03:36:12.940Z,22.87
2022-12-20T03:38:40.657Z,23.67
2022-12-20T03:41:08.381Z,26.17
2022-12-20T03:43:36.096Z,25.37
2022-12-20T03:46:03.875Z,22.07
2022-12-20T03:48:31.624Z,24.63
2022-12-20T03:50:59.352Z,23.43
2022-12-20T03:53:28.457Z,20.17
2022-12-20T03:55:56.225Z,20.53
2022-12-20T03:58:24.450Z,21.47
2022-12-20T04:00:52.241Z,20.50
2022-12-20T04:03:20.102Z,22.97
2022-12-20T04:05:47.890Z,18.93
2022-12-20T04:08:15.597Z,24.83
2022-12-20T04:10:58.565Z,28.23
2022-12-20T04:13:26.264Z,19.57
2022-12-20T04:15:59.780Z,24.20
2022-12-20T04:18:28.215Z,24.50
2022-12-20T04:20:55.988Z,19.17
2022-12-20T04:23:23.743Z,16.87
2022-12-20T04:25:52.822Z,21.60
2022-12-20T04:28:20.544Z,19.33
2022-12-20T04:30:48.358Z,23.00
2022-12-20T04:33:16.118Z,22.97
2022-12-20T04:35:43.843Z,19.43
2022-12-20T04:38:11.549Z,23.07
2022-12-20T04:40:39.309Z,20.03
2022-12-20T04:43:08.378Z,18.60
2022-12-20T04:45:36.132Z,18.10
2022-12-20T04:48:28.420Z,21.93
2022-12-20T04:50:53.573Z,20.57
2022-12-20T04:53:39.396Z,21.87
2022-12-20T04:56:07.564Z,20.57
2022-12-20T04:58:36.651Z,20.10
2022-12-20T05:01:04.347Z,22.87
2022-12-20T05:03:32.143Z,19.10
2022-12-20T05:05:59.932Z,21.00
2022-12-20T05:08:27.824Z,22.77
2022-12-20T05:10:55.511Z,21.83
2022-12-20T05:13:23.237Z,22.53
2022-12-20T05:15:54.502Z,20.93
2022-12-20T05:18:23.037Z,21.27
2022-12-20T05:21:11.480Z,18.43
2022-12-20T05:23:56.883Z,17.97
2022-12-20T05:26:25.076Z,22.07
2022-12-20T05:28:53.705Z,19.23
2022-12-20T05:31:22.853Z,20.67
2022-12-20T05:33:50.942Z,23.30
2022-12-20T05:36:18.689Z,16.93
2022-12-20T05:38:46.455Z,21.33
2022-12-20T05:41:14.166Z,24.10
2022-12-20T05:43:41.854Z,24.13
2022-12-20T05:46:09.867Z,24.57
2022-12-20T05:48:39.213Z,24.07
2022-12-20T05:51:07.239Z,21.73
2022-12-20T05:53:34.979Z,21.23
2022-12-20T05:56:02.713Z,21.30
2022-12-20T05:58:30.729Z,24.43
2022-12-20T06:00:58.507Z,23.27
2022-12-20T06:03:26.385Z,18.63
2022-12-20T06:05:55.543Z,21.27
2022-12-20T06:08:24.625Z,20.70
2022-12-20T06:10:52.379Z,24.50
2022-12-20T06:13:20.452Z,22.23
2022-12-20T06:15:48.842Z,24.50
2022-12-20T06:18:16.664Z,21.70
2022-12-20T06:20:44.644Z,22.90
2022-12-20T06:23:13.700Z,24.67
2022-12-20T06:25:41.407Z,24.17
2022-12-20T06:28:09.135Z,24.83
2022-12-20T06:30:36.839Z,21.57
2022-12-20T06:33:05.174Z,22.77
2022-12-20T06:35:32.884Z,21.63
2022-12-20T06:38:00.568Z,19.80
2022-12-20T06:40:29.644Z,20.40
2022-12-20T06:42:57.317Z,20.57
2022-12-20T06:45:25.132Z,23.03
2022-12-20T06:47:52.956Z,17.27
2022-12-20T06:50:20.708Z,20.60
2022-12-20T06:52:48.411Z,20.87
2022-12-20T06:55:16.208Z,21.73
2022-12-20T06:57:45.281Z,19.70
2022-12-20T07:00:14.348Z,20.53
2022-12-20T07:02:42.170Z,20.90
2022-12-20T07:05:10.353Z,22.67
2022-12-20T07:07:44.506Z,19.87
2022-12-20T07:10:13.132Z,25.60
2022-12-20T07:12:47.181Z,19.73
2022-12-20T07:15:17.444Z,23.07
2022-12-20T07:17:45.559Z,19.83
2022-12-20T07:23:01.041Z,21.93
2022-12-20T07:25:28.866Z,23.23
2022-12-20T07:27:56.607Z,20.80
2022-12-20T07:30:26.185Z,21.50
2022-12-20T07:32:53.967Z,23.60
2022-12-20T07:35:22.551Z,23.90
2022-12-20T07:37:51.079Z,15.07
2022-12-20T07:40:18.900Z,23.07
2022-12-20T07:42:49.033Z,21.37
2022-12-20T07:45:17.224Z,16.83
2022-12-20T07:47:46.342Z,22.27
2022-12-20T07:50:14.079Z,21.93
2022-12-20T07:52:45.821Z,21.73
2022-12-20T07:55:14.845Z,21.03
2022-12-20T07:57:48.040Z,24.37
2022-12-20T08:00:18.731Z,24.47
2022-12-20T08:02:54.014Z,22.67
2022-12-20T08:05:22.533Z,19.27
2022-12-20T08:07:55.190Z,20.10
2022-12-20T08:10:26.553Z,25.13
2022-12-20T08:12:54.410Z,24.50
2022-12-20T08:15:23.064Z,22.10
2022-12-20T08:17:52.366Z,24.83
2022-12-20T08:20:20.341Z,21.63
2022-12-20T08:22:48.057Z,20.07
2022-12-20T08:25:15.896Z,25.83
2022-12-20T08:27:43.609Z,20.70
2022-12-20T08:30:12.555Z,20.07
2022-12-20T08:32:40.460Z,17.80
2022-12-20T08:35:09.773Z,19.93
2022-12-20T08:37:37.551Z,21.80
2022-12-20T08:40:07.672Z,20.37
2022-12-20T08:42:35.519Z,23.53
2022-12-20T08:45:03.209Z,18.93
2022-12-20T08:47:31.180Z,21.30
2022-12-20T08:49:58.916Z,27.03
2022-12-20T08:52:29.941Z,20.37
2022-12-20T08:54:58.452Z,19.53
2022-12-20T08:57:26.397Z,21.80
2022-12-20T08:59:54.106Z,23.73
2022-12-20T09:02:22.037Z,23.97
2022-12-20T09:04:50.223Z,21.27
2022-12-20T09:07:17.919Z,21.73
2022-12-20T09:09:47.592Z,23.30
2022-12-20T09:12:15.390Z,23.73
2022-12-20T09:14:43.138Z,17.47
2022-12-20T09:17:10.836Z,25.63
2022-12-20T09:19:38.521Z,23.37
2022-12-20T09:22:06.261Z,27.20
2022-12-20T09:24:34.038Z,15.57
2022-12-20T09:27:03.101Z,21.13
2022-12-20T09:29:35.570Z,22.17
2022-12-20T09:32:03.737Z,20.07
2022-12-20T09:34:31.442Z,24.37
2022-12-20T09:36:59.168Z,23.57
2022-12-20T09:39:26.964Z,23.10
2022-12-20T09:41:54.864Z,26.47
2022-12-20T09:44:28.285Z,23.67
2022-12-20T09:47:04.978Z,24.87
2022-12-20T09:49:38.434Z,20.30
2022-12-20T09:52:24.859Z,18.03
2022-12-20T09:55:02.978Z,21.43
2022-12-20T09:57:48.814Z,24.30
2022-12-20T10:00:20.557Z,26.63
2022-12-20T10:03:09.841Z,23.43
2022-12-20T10:05:43.991Z,26.50
2022-12-20T10:08:23.454Z,27.47
2022-12-20T10:10:57.439Z,22.40
2022-12-20T10:13:38.880Z,22.43
2022-12-20T10:16:23.173Z,21.93
2022-12-20T10:18:59.436Z,20.23
2022-12-20T10:21:39.187Z,20.77
2022-12-20T10:24:13.679Z,24.70
2022-12-20T10:26:41.526Z,22.10
2022-12-20T10:29:10.047Z,22.57
2022-12-20T10:31:40.195Z,16.30
2022-12-20T10:34:09.171Z,19.73
2022-12-20T10:36:37.875Z,20.53
2022-12-20T10:39:08.225Z,19.00
2022-12-20T10:41:51.832Z,22.03
2022-12-20T10:44:24.042Z,20.00
2022-12-20T10:46:55.929Z,17.27
2022-12-20T10:49:29.575Z,18.07
2022-12-20T10:52:00.277Z,16.77
2022-12-20T10:54:34.629Z,20.70
2022-12-20T10:57:04.886Z,19.47
2022-12-20T10:59:36.224Z,12.60
2022-12-20T11:02:30.350Z,13.50
2022-12-20T11:05:06.365Z,15.27
2022-12-20T11:07:35.852Z,13.67
2022-12-20T11:10:19.753Z,12.50
2022-12-20T11:12:54.639Z,15.50
2022-12-20T11:15:34.225Z,20.23
2022-12-20T11:18:07.780Z,14.03
2022-12-20T11:20:41.499Z,14.87
2022-12-20T11:23:22.051Z,16.37
2022-12-20T11:26:04.817Z,13.80
2022-12-20T11:28:44.962Z,12.77
2022-12-20T11:31:21.430Z,10.97
2022-12-20T11:34:04.551Z,13.07
2022-12-20T11:36:46.493Z,10.40
2022-12-20T11:39:19.793Z,11.17
2022-12-20T11:41:57.188Z,13.23
2022-12-20T11:44:34.418Z,11.27
2022-12-20T11:47:21.310Z,11.50
2022-12-20T11:50:12.379Z,12.47
2022-12-20T11:52:46.980Z,10.30
2022-12-20T11:55:21.706Z,9.63
2022-12-20T12:00:52.234Z,13.57
2022-12-20T12:03:27.920Z,10.20
2022-12-20T12:06:01.777Z,13.47
2022-12-20T12:08:39.898Z,8.53
2022-12-20T12:11:55.575Z,13.13
2022-12-20T12:14:05.504Z,8.03
2022-12-20T12:16:38.623Z,12.07
2022-12-20T12:19:12.374Z,10.83
2022-12-20T12:21:48.393Z,11.83
2022-12-20T12:24:22.904Z,11.97
2022-12-20T12:26:50.831Z,10.47
2022-12-20T12:29:20.371Z,12.70
2022-12-20T12:31:53.531Z,8.80
2022-12-20T12:34:35.633Z,11.00
2022-12-20T12:37:33.399Z,11.13
2022-12-20T12:40:17.196Z,10.97
2022-12-20T12:43:10.371Z,8.77
2022-12-20T12:45:43.390Z,11.23
2022-12-20T12:48:18.520Z,10.93
2022-12-20T12:50:48.694Z,9.47
2022-12-20T12:53:22.070Z,8.17
2022-12-20T12:56:02.319Z,12.63
2022-12-20T12:58:46.423Z,7.37
2022-12-20T13:01:49.162Z,13.80
2022-12-20T13:04:28.867Z,10.37
2022-12-20T13:07:00.020Z,8.37
2022-12-20T13:09:43.342Z,9.17
2022-12-20T13:12:50.741Z,11.37
2022-12-20T13:15:50.865Z,8.80
2022-12-20T13:18:24.729Z,10.93
2022-12-20T13:21:19.795Z,8.57
2022-12-20T13:23:47.597Z,9.37
2022-12-20T13:26:51.663Z,7.57
2022-12-20T13:29:25.729Z,7.40
2022-12-20T13:31:54.781Z,10.43
2022-12-20T13:34:55.196Z,9.50
2022-12-20T13:37:27.489Z,10.43
2022-12-20T13:39:56.251Z,9.37
2022-12-20T13:42:41.991Z,10.17
2022-12-20T13:45:14.556Z,7.97
2022-12-20T13:47:48.011Z,7.80
2022-12-20T13:50:40.563Z,13.53
2022-12-20T13:53:18.800Z,9.50
2022-12-20T13:55:47.225Z,7.83
2022-12-20T13:58:20.024Z,9.30
2022-12-20T14:00:48.509Z,14.77
2022-12-20T14:03:24.978Z,11.93
2022-12-20T14:05:58.437Z,8.40
2022-12-20T14:08:30.176Z,10.97
2022-12-20T14:11:08.691Z,11.63
2022-12-20T14:13:38.205Z,9.20
2022-12-20T14:16:11.536Z,8.17
2022-12-20T14:18:39.370Z,9.10
2022-12-20T14:21:08.684Z,11.50
2022-12-20T14:23:41.078Z,13.10
2022-12-20T14:26:14.214Z,8.50
2022-12-20T14:28:45.404Z,13.37
2022-12-20T14:31:26.342Z,10.00
2022-12-20T14:34:04.152Z,11.17
2022-12-20T14:36:32.331Z,12.87
2022-12-20T14:39:01.049Z,11.67
2022-12-20T14:41:34.980Z,12.13
2022-12-20T14:44:15.327Z,13.23
2022-12-20T14:46:49.331Z,11.27
2022-12-20T14:49:23.104Z,15.23
2022-12-20T14:51:52.125Z,14.30
2022-12-20T14:54:56.809Z,13.83
2022-12-20T14:57:13.668Z,12.77
2022-12-20T14:59:57.307Z,10.93
2022-12-20T15:02:36.423Z,12.30
2022-12-20T15:05:10.159Z,12.30
2022-12-20T15:07:42.700Z,13.60
2022-12-20T15:10:10.441Z,9.20
2022-12-20T15:12:42.161Z,10.83
2022-12-20T15:15:28.833Z,13.90
2022-12-20T15:17:57.456Z,11.53
2022-12-20T15:20:25.220Z,12.20
2022-12-20T15:22:52.971Z,14.20
2022-12-20T15:25:20.677Z,12.53
2022-12-20T15:27:48.483Z,9.97
2022-12-20T15:30:18.694Z,13.23
2022-12-20T15:32:55.293Z,14.03
2022-12-20T15:35:24.882Z,14.47
2022-12-20T15:37:52.633Z,11.60
2022-12-20T15:40:20.673Z,11.33
2022-12-20T15:42:48.447Z,14.73
2022-12-20T15:45:17.856Z,13.97
2022-12-20T15:47:45.573Z,17.13
2022-12-20T15:50:13.689Z,11.70
2022-12-20T15:52:41.475Z,14.37
2022-12-20T15:55:12.015Z,12.33
2022-12-20T15:57:41.312Z,10.77
2022-12-20T16:00:11.251Z,14.17
2022-12-20T16:02:40.560Z,13.20
2022-12-20T16:05:13.740Z,14.10
2022-12-20T16:07:41.559Z,14.37
2022-12-20T16:10:14.424Z,13.53
2022-12-20T16:12:42.982Z,11.57
2022-12-20T16:15:19.969Z,14.90
2022-12-20T16:17:49.070Z,12.30
2022-12-20T16:20:17.087Z,13.07
2022-12-20T16:22:44.803Z,11.30
2022-12-20T16:25:25.000Z,13.70
2022-12-20T16:27:52.868Z,13.20
2022-12-20T16:30:20.856Z,13.00
2022-12-20T16:32:50.708Z,11.53
2022-12-20T16:35:25.514Z,15.53
2022-12-20T16:37:53.249Z,13.37
2022-12-20T16:40:22.205Z,17.07
2022-12-20T16:42:50.098Z,15.10
2022-12-20T16:45:20.635Z,14.60
2022-12-20T16:47:50.254Z,12.37
2022-12-20T16:50:19.669Z,13.87
2022-12-20T16:52:48.017Z,9.27
2022-12-20T16:55:19.193Z,13.07
2022-12-20T16:57:47.008Z,12.57
2022-12-20T17:00:18.996Z,13.00
2022-12-20T17:02:47.113Z,14.97
2022-12-20T17:05:29.356Z,13.17
2022-12-20T17:07:57.534Z,13.93
2022-12-20T17:10:26.963Z,11.93
2022-12-20T17:12:55.052Z,16.33
2022-12-20T17:15:25.049Z,14.30
2022-12-20T17:17:53.423Z,15.33
2022-12-20T17:20:24.038Z,13.53
2022-12-20T17:22:54.751Z,15.97
2022-12-20T17:25:25.934Z,18.57
2022-12-20T17:27:55.550Z,16.20
2022-12-20T17:30:24.698Z,13.80
2022-12-20T17:32:53.348Z,15.17
2022-12-20T17:35:28.323Z,15.13
2022-12-20T17:37:57.957Z,12.90
2022-12-20T17:40:26.787Z,15.23
2022-12-20T17:42:54.784Z,15.77
2022-12-20T17:45:26.104Z,14.63
2022-12-20T17:47:54.557Z,14.80
2022-12-20T17:50:22.882Z,14.97
2022-12-20T17:52:50.593Z,16.43
2022-12-20T17:55:22.893Z,15.30
2022-12-20T17:57:51.075Z,21.50
2022-12-20T18:00:23.016Z,16.63
2022-12-20T18:02:50.919Z,23.00
2022-12-20T18:05:18.888Z,17.93
2022-12-20T18:07:50.819Z,21.77
2022-12-20T18:10:23.189Z,15.63
2022-12-20T18:12:51.483Z,17.17
2022-12-20T18:15:20.175Z,15.67
2022-12-20T18:17:48.081Z,16.77
2022-12-20T18:20:15.909Z,16.17
2022-12-20T18:22:43.640Z,16.50
2022-12-20T18:25:13.801Z,13.43
2022-12-20T18:27:43.834Z,18.33
2022-12-20T18:30:13.195Z,21.63
2022-12-20T18:32:41.305Z,18.17
2022-12-20T18:35:10.463Z,24.37
2022-12-20T18:37:38.235Z,20.87
2022-12-20T18:40:07.272Z,22.77
2022-12-20T18:42:35.047Z,17.47
2022-12-20T18:45:04.288Z,22.40
2022-12-20T18:47:33.059Z,39.53
2022-12-20T18:50:00.762Z,21.47
2022-12-20T18:52:28.440Z,17.70
2022-12-20T18:54:58.184Z,18.97
2022-12-20T18:57:25.966Z,17.40
2022-12-20T18:59:53.744Z,15.87
2022-12-20T19:02:23.105Z,14.83
2022-12-20T19:04:50.912Z,15.00
2022-12-20T19:07:18.647Z,19.63
2022-12-20T19:09:46.388Z,19.17
2022-12-20T19:12:14.113Z,20.27
2022-12-20T19:14:41.814Z,20.10
2022-12-20T19:17:09.549Z,15.63
2022-12-20T19:19:38.918Z,19.73
2022-12-20T19:22:06.607Z,16.90
2022-12-20T19:24:34.335Z,19.10
2022-12-20T19:27:04.222Z,19.47
2022-12-20T19:29:31.931Z,16.90
2022-12-20T19:31:59.686Z,15.10
2022-12-20T19:34:27.446Z,16.63
2022-12-20T19:36:56.571Z,16.73
2022-12-20T19:39:24.452Z,17.67
2022-12-20T19:42:22.844Z,16.17
2022-12-20T19:44:41.315Z,16.40
2022-12-20T19:47:09.076Z,16.07
2022-12-20T19:49:36.967Z,16.50
2022-12-20T19:52:07.490Z,16.27
2022-12-20T19:54:36.104Z,18.30
2022-12-20T19:57:03.849Z,16.07
2022-12-20T19:59:31.603Z,14.70
2022-12-20T20:01:59.415Z,15.40
2022-12-20T20:04:28.584Z,16.03
2022-12-20T20:06:57.353Z,16.20
2022-12-20T20:09:26.536Z,15.77
2022-12-20T20:11:54.327Z,13.90
2022-12-20T20:14:22.356Z,14.77
2022-12-20T20:16:53.123Z,15.70
2022-12-20T20:19:21.836Z,15.83
2022-12-20T20:21:49.845Z,13.50
2022-12-20T20:24:17.813Z,16.37
2022-12-20T20:26:47.369Z,14.73
2022-12-20T20:29:15.180Z,17.63
2022-12-20T20:31:43.042Z,13.93
2022-12-20T20:34:10.894Z,16.33
2022-12-20T20:36:38.640Z,13.30
2022-12-20T20:39:06.578Z,15.73
2022-12-20T20:41:34.306Z,15.93
2022-12-20T20:44:03.403Z,12.30
2022-12-20T20:46:31.228Z,14.13
2022-12-20T20:48:59.347Z,17.57
2022-12-20T20:51:27.080Z,13.30
2022-12-20T20:53:54.810Z,13.57
2022-12-20T20:56:22.620Z,14.67
2022-12-20T20:58:50.532Z,17.50
2022-12-20T21:01:19.651Z,14.47
2022-12-20T21:03:47.517Z,15.23
2022-12-20T21:06:39.194Z,17.90
2022-12-20T21:09:03.323Z,15.63
2022-12-20T21:11:31.191Z,14.37
2022-12-20T21:13:58.926Z,13.13
2022-12-20T21:16:28.207Z,15.27
2022-12-20T21:18:58.292Z,14.20
2022-12-20T21:21:27.841Z,13.33
2022-12-20T21:23:55.849Z,12.20
2022-12-20T21:26:25.406Z,12.77
2022-12-20T21:28:57.683Z,12.30
2022-12-20T21:31:25.473Z,13.77
2022-12-20T21:33:56.603Z,13.00
2022-12-20T21:36:24.856Z,15.80
2022-12-20T21:38:55.586Z,17.07
2022-12-20T21:41:27.073Z,13.23
2022-12-20T21:43:57.642Z,15.93
2022-12-20T21:46:25.491Z,15.63
2022-12-20T21:48:55.802Z,14.83
2022-12-20T21:51:25.825Z,17.87
2022-12-20T21:53:55.750Z,20.10
2022-12-20T21:56:25.662Z,16.20
2022-12-20T21:58:53.821Z,18.90
2022-12-20T22:01:23.285Z,15.90
2022-12-20T22:03:51.586Z,17.73
2022-12-20T22:06:21.098Z,19.00
2022-12-20T22:08:48.822Z,16.50
2022-12-20T22:11:18.643Z,16.60
2022-12-20T22:13:46.944Z,18.00
2022-12-20T22:16:17.360Z,20.03
2022-12-20T22:18:48.684Z,20.50
2022-12-20T22:21:17.611Z,18.90
2022-12-20T22:23:47.132Z,17.70
2022-12-20T22:26:17.465Z,18.63
2022-12-20T22:28:46.939Z,16.83
2022-12-20T22:31:15.651Z,19.23
2022-12-20T22:33:43.609Z,19.43
2022-12-20T22:36:13.656Z,17.17
2022-12-20T22:38:43.248Z,16.47
2022-12-20T22:41:13.966Z,17.27
2022-12-20T22:43:42.495Z,19.27
2022-12-20T22:46:11.262Z,19.37
2022-12-20T22:48:40.123Z,20.30
2022-12-20T22:51:10.692Z,17.07
2022-12-20T22:53:38.927Z,19.40
2022-12-20T22:56:07.693Z,17.03
2022-12-20T22:58:37.699Z,19.60
2022-12-20T23:01:08.278Z,19.20
2022-12-20T23:03:37.041Z,18.60
2022-12-20T23:06:06.619Z,21.57
2022-12-20T23:08:36.553Z,21.10
2022-12-20T23:11:22.526Z,21.03
2022-12-20T23:14:09.154Z,18.63
2022-12-20T23:16:38.154Z,20.57
2022-12-20T23:19:05.919Z,19.77
2022-12-20T23:21:50.933Z,22.77
2022-12-20T23:24:18.686Z,22.47
2022-12-20T23:26:46.384Z,21.17
2022-12-20T23:29:15.496Z,21.60
2022-12-20T23:31:43.243Z,20.80
2022-12-20T23:34:11.108Z,24.53
2022-12-20T23:36:39.027Z,23.17
2022-12-20T23:39:07.054Z,22.10
2022-12-20T23:41:34.889Z,21.03
2022-12-20T23:44:05.106Z,21.43
2022-12-20T23:46:34.993Z,19.77
2022-12-20T23:49:02.787Z,22.17
2022-12-20T23:51:30.599Z,20.93
2022-12-20T23:53:58.329Z,18.60
2022-12-20T23:56:26.507Z,18.10
2022-12-20T23:58:55.997Z,21.27
